createdAt,value
2023-04-01T00:02:24.833Z,15.9
2023-04-01T00:12:25.407Z,15.6
2023-04-01T00:22:25.623Z,15.3
2023-04-01T00:32:26.162Z,15.5
2023-04-01T00:42:26.643Z,14.9
2023-04-01T00:52:27.023Z,14.8
2023-04-01T01:02:27.401Z,14.6
2023-04-01T01:12:27.683Z,14.1
2023-04-01T01:22:28.366Z,14.1
2023-04-01T01:32:28.792Z,14.1
2023-04-01T01:42:28.966Z,13.6
2023-04-01T01:52:29.052Z,13.5
2023-04-01T02:02:29.300Z,13.4
2023-04-01T02:12:29.690Z,13.1
2023-04-01T02:22:29.987Z,13
2023-04-01T02:32:30.641Z,13.1
2023-04-01T02:42:30.964Z,12.8
2023-04-01T02:52:31.114Z,12.8
2023-04-01T03:02:09.122Z,0
2023-04-01T03:12:10.379Z,12.8
2023-04-01T03:22:11.437Z,13.1
2023-04-01T03:32:12.755Z,12.7
2023-04-01T03:42:13.811Z,13
2023-04-01T03:52:15.165Z,12.7
2023-04-01T04:02:16.752Z,12.6
2023-04-01T04:12:19.098Z,12.6
2023-04-01T04:22:21.319Z,12.3
2023-04-01T04:32:23.634Z,11.9
2023-04-01T04:42:25.993Z,12.3
2023-04-01T04:52:28.679Z,12.3
2023-04-01T05:02:29.707Z,11.9
2023-04-01T05:12:30.656Z,11.9
2023-04-01T05:22:31.639Z,12.3
2023-04-01T05:32:41.190Z,20.6
2023-04-01T05:38:31.439Z,21.9
2023-04-01T05:48:51.684Z,23.1
2023-04-01T05:59:12.977Z,23.8
2023-04-01T06:09:34.022Z,26.2
2023-04-01T06:19:49.997Z,26.8
2023-04-01T06:30:02.376Z,29.5
2023-04-01T06:40:11.656Z,29.5
2023-04-01T06:50:18.325Z,29.5
2023-04-01T07:00:23.762Z,34.9
2023-04-01T07:10:26.036Z,34.9
2023-04-01T07:20:32.243Z,34.9
2023-04-01T07:30:40.414Z,34.9
2023-04-01T07:40:48.851Z,34.9
2023-04-01T08:00:54.563Z,34.9
2023-04-01T08:10:56.264Z,34.9
2023-04-01T08:21:06.498Z,34.9
2023-04-01T08:31:18.258Z,34.9
2023-04-01T08:41:34.984Z,34.9
2023-04-01T08:51:51.821Z,34.9
2023-04-01T09:02:10.669Z,1893.6
2023-04-01T09:12:23.999Z,1893.6
2023-04-01T09:22:32.147Z,1893.6
2023-04-01T09:32:38.816Z,1893.6
2023-04-01T09:42:46.898Z,1893.6
2023-04-01T09:52:57.726Z,1893.6
2023-04-01T10:03:09.960Z,1893.6
2023-04-01T10:13:19.504Z,1893.6
2023-04-01T10:23:28.914Z,1893.6
2023-04-01T10:33:40.018Z,1893.6
2023-04-01T10:43:50.880Z,1893.6
2023-04-01T10:54:00.826Z,1893.6
2023-04-01T11:04:10.354Z,1893.6
2023-04-01T11:14:16.304Z,105.9
2023-04-01T11:24:17.193Z,105.9
2023-04-01T11:34:16.521Z,105.9
2023-04-01T11:44:18.140Z,105.9
2023-04-01T11:54:20.177Z,105.9
2023-04-01T12:04:19.489Z,105.9
2023-04-01T12:14:20.422Z,105.9
2023-04-01T12:24:30.628Z,105.9
2023-04-01T12:34:36.909Z,105.9
2023-04-01T12:44:38.087Z,105.9
2023-04-01T12:54:39.099Z,105.9
2023-04-01T13:04:38.925Z,105.9
2023-04-01T13:14:40.133Z,105.9
2023-04-01T13:24:47.289Z,105.9
2023-04-01T13:34:49.257Z,105.9
2023-04-01T13:44:49.368Z,105.9
2023-04-01T13:54:51.089Z,105.9
2023-04-01T14:04:53.199Z,105.9
2023-04-01T14:14:54.333Z,105.9
2023-04-01T14:24:54.398Z,105.9
2023-04-01T14:34:55.537Z,105.9
2023-04-01T14:44:56.010Z,105.9
2023-04-01T14:54:58.604Z,105.9
2023-04-01T15:02:09.134Z,0
2023-04-01T15:12:08.504Z,0
2023-04-01T15:22:09.572Z,0
2023-04-01T15:32:10.036Z,0
2023-04-01T15:42:10.603Z,0
2023-04-01T15:52:11.152Z,0
2023-04-01T16:02:12.168Z,0
2023-04-01T16:12:14.203Z,0
2023-04-01T16:22:15.785Z,0
2023-04-01T16:32:18.081Z,0
2023-04-01T16:42:18.078Z,0
2023-04-01T16:52:20.613Z,0
2023-04-01T17:02:21.506Z,682.1
2023-04-01T17:12:21.821Z,682.1
2023-04-01T17:22:22.245Z,682.1
2023-04-01T17:32:21.856Z,682.1
2023-04-01T17:42:21.744Z,682.1
2023-04-01T17:52:22.067Z,682.1
2023-04-01T18:02:21.661Z,682.1
2023-04-01T18:12:21.534Z,682.1
2023-04-01T18:22:21.725Z,682.1
2023-04-01T18:32:21.192Z,682.1
2023-04-01T18:42:22.382Z,682.1
2023-04-01T18:52:21.741Z,682.1
2023-04-01T19:02:21.855Z,682.1
2023-04-01T19:12:22.505Z,682.1
2023-04-01T19:22:22.770Z,682.1
2023-04-01T19:32:22.847Z,682.1
2023-04-01T19:42:22.583Z,682.1
2023-04-01T19:52:22.900Z,682.1
2023-04-01T20:02:23.329Z,682.1
2023-04-01T20:12:22.913Z,682.1
2023-04-01T20:22:22.295Z,682.1
2023-04-01T20:32:22.197Z,682.1
2023-04-01T20:42:22.313Z,682.1
2023-04-01T20:52:22.438Z,682.1
2023-04-01T21:02:07.889Z,0
2023-04-01T21:12:07.299Z,0
2023-04-01T21:22:07.751Z,129
2023-04-01T21:32:07.663Z,129
2023-04-01T21:42:08.324Z,129
2023-04-01T21:52:07.430Z,129
2023-04-01T22:02:07.522Z,129
2023-04-01T22:12:08.491Z,129
2023-04-01T22:22:09.553Z,129
2023-04-01T22:32:10.369Z,129
2023-04-01T22:42:11.915Z,129
2023-04-01T22:52:13.861Z,129
2023-04-01T23:02:13.951Z,129
2023-04-01T23:12:14.188Z,129
2023-04-01T23:22:13.756Z,129
2023-04-01T23:32:14.189Z,129
2023-04-01T23:42:14.352Z,129
2023-04-01T23:52:14.724Z,129
